sensor_id;sensor_type;location;lat;lon;timestamp;temperature;humidity
16287;DHT22;8251;53.568;10.018;2022-12-26T00:00:29;10.50;91.90
16287;DHT22;8251;53.568;10.018;2022-12-26T00:02:59;10.50;91.90
16287;DHT22;8251;53.568;10.018;2022-12-26T00:05:35;10.50;91.90
16287;DHT22;8251;53.568;10.018;2022-12-26T00:08:04;10.40;91.90
16287;DHT22;8251;53.568;10.018;2022-12-26T00:10:33;10.50;92.00
16287;DHT22;8251;53.568;10.018;2022-12-26T00:13:00;10.50;92.00
16287;DHT22;8251;53.568;10.018;2022-12-26T00:15:29;10.50;92.00
16287;DHT22;8251;53.568;10.018;2022-12-26T00:18:00;10.50;92.10
16287;DHT22;8251;53.568;10.018;2022-12-26T00:20:29;10.40;92.00
16287;DHT22;8251;53.568;10.018;2022-12-26T00:22:59;10.50;92.10
16287;DHT22;8251;53.568;10.018;2022-12-26T00:25:28;10.50;92.10
16287;DHT22;8251;53.568;10.018;2022-12-26T00:27:59;10.50;92.10
16287;DHT22;8251;53.568;10.018;2022-12-26T00:30:28;10.50;92.10
16287;DHT22;8251;53.568;10.018;2022-12-26T00:32:58;10.50;92.20
16287;DHT22;8251;53.568;10.018;2022-12-26T00:35:26;10.50;92.20
16287;DHT22;8251;53.568;10.018;2022-12-26T00:37:57;10.50;92.20
16287;DHT22;8251;53.568;10.018;2022-12-26T00:40:27;10.60;92.30
16287;DHT22;8251;53.568;10.018;2022-12-26T00:42:54;10.50;92.20
16287;DHT22;8251;53.568;10.018;2022-12-26T00:45:21;10.60;92.30
16287;DHT22;8251;53.568;10.018;2022-12-26T00:47:58;10.60;92.30
16287;DHT22;8251;53.568;10.018;2022-12-26T00:50:30;10.50;92.20
16287;DHT22;8251;53.568;10.018;2022-12-26T00:53:02;10.60;92.20
16287;DHT22;8251;53.568;10.018;2022-12-26T00:55:32;10.50;92.10
16287;DHT22;8251;53.568;10.018;2022-12-26T00:58:01;10.40;92.10
16287;DHT22;8251;53.568;10.018;2022-12-26T01:00:29;10.40;92.10
16287;DHT22;8251;53.568;10.018;2022-12-26T01:03:01;10.40;92.10
16287;DHT22;8251;53.568;10.018;2022-12-26T01:05:30;10.40;92.10
16287;DHT22;8251;53.568;10.018;2022-12-26T01:08:01;10.30;92.20
16287;DHT22;8251;53.568;10.018;2022-12-26T01:10:30;10.30;92.20
16287;DHT22;8251;53.568;10.018;2022-12-26T01:13:00;10.30;92.20
16287;DHT22;8251;53.568;10.018;2022-12-26T01:15:27;10.30;92.20
16287;DHT22;8251;53.568;10.018;2022-12-26T01:17:58;10.30;92.70
16287;DHT22;8251;53.568;10.018;2022-12-26T01:20:28;10.30;92.40
16287;DHT22;8251;53.568;10.018;2022-12-26T01:22:55;10.30;92.50
16287;DHT22;8251;53.568;10.018;2022-12-26T01:25:25;10.30;92.50
16287;DHT22;8251;53.568;10.018;2022-12-26T01:27:54;10.30;92.60
16287;DHT22;8251;53.568;10.018;2022-12-26T01:30:22;10.30;92.50
16287;DHT22;8251;53.568;10.018;2022-12-26T01:32:50;10.30;92.50
16287;DHT22;8251;53.568;10.018;2022-12-26T01:35:17;10.40;92.60
16287;DHT22;8251;53.568;10.018;2022-12-26T01:37:45;10.40;92.60
16287;DHT22;8251;53.568;10.018;2022-12-26T01:40:14;10.40;92.60
16287;DHT22;8251;53.568;10.018;2022-12-26T01:42:44;10.40;92.60
16287;DHT22;8251;53.568;10.018;2022-12-26T01:45:23;10.40;92.60
16287;DHT22;8251;53.568;10.018;2022-12-26T01:47:54;10.40;92.60
16287;DHT22;8251;53.568;10.018;2022-12-26T01:50:33;10.50;92.70
16287;DHT22;8251;53.568;10.018;2022-12-26T01:53:09;10.40;92.60
16287;DHT22;8251;53.568;10.018;2022-12-26T01:55:40;10.40;92.60
16287;DHT22;8251;53.568;10.018;2022-12-26T01:58:14;10.40;92.60
16287;DHT22;8251;53.568;10.018;2022-12-26T02:00:44;10.40;93.00
16287;DHT22;8251;53.568;10.018;2022-12-26T02:06:43;10.40;92.60
16287;DHT22;8251;53.568;10.018;2022-12-26T02:09:12;10.40;92.60
16287;DHT22;8251;53.568;10.018;2022-12-26T02:11:46;10.30;92.60
16287;DHT22;8251;53.568;10.018;2022-12-26T02:14:19;10.40;92.70
16287;DHT22;8251;53.568;10.018;2022-12-26T02:16:48;10.40;92.70
16287;DHT22;8251;53.568;10.018;2022-12-26T02:19:27;10.40;93.10
16287;DHT22;8251;53.568;10.018;2022-12-26T02:25:32;10.40;92.70
16287;DHT22;8251;53.568;10.018;2022-12-26T02:28:22;10.40;92.60
16287;DHT22;8251;53.568;10.018;2022-12-26T02:31:26;10.40;92.50
16287;DHT22;8251;53.568;10.018;2022-12-26T02:34:03;10.40;92.50
16287;DHT22;8251;53.568;10.018;2022-12-26T02:36:52;10.30;92.60
16287;DHT22;8251;53.568;10.018;2022-12-26T02:39:37;10.30;92.50
16287;DHT22;8251;53.568;10.018;2022-12-26T02:42:22;10.30;92.60
16287;DHT22;8251;53.568;10.018;2022-12-26T02:44:53;10.20;92.50
16287;DHT22;8251;53.568;10.018;2022-12-26T02:47:53;10.20;92.60
16287;DHT22;8251;53.568;10.018;2022-12-26T02:50:30;10.10;92.70
16287;DHT22;8251;53.568;10.018;2022-12-26T02:53:23;10.10;92.80
16287;DHT22;8251;53.568;10.018;2022-12-26T02:56:17;10.10;93.00
16287;DHT22;8251;53.568;10.018;2022-12-26T02:59:08;10.20;93.00
16287;DHT22;8251;53.568;10.018;2022-12-26T03:02:00;10.20;93.00
16287;DHT22;8251;53.568;10.018;2022-12-26T03:04:54;10.20;93.00
16287;DHT22;8251;53.568;10.018;2022-12-26T03:07:41;10.20;93.00
16287;DHT22;8251;53.568;10.018;2022-12-26T03:10:33;10.20;93.00
16287;DHT22;8251;53.568;10.018;2022-12-26T03:13:30;10.20;93.00
16287;DHT22;8251;53.568;10.018;2022-12-26T03:16:06;10.30;93.00
16287;DHT22;8251;53.568;10.018;2022-12-26T03:18:54;10.20;93.00
16287;DHT22;8251;53.568;10.018;2022-12-26T03:21:55;10.30;93.00
16287;DHT22;8251;53.568;10.018;2022-12-26T03:24:27;10.30;92.90
16287;DHT22;8251;53.568;10.018;2022-12-26T03:27:15;10.30;92.90
16287;DHT22;8251;53.568;10.018;2022-12-26T03:29:45;10.30;93.20
16287;DHT22;8251;53.568;10.018;2022-12-26T03:32:42;10.30;92.90
16287;DHT22;8251;53.568;10.018;2022-12-26T03:35:12;10.30;92.90
16287;DHT22;8251;53.568;10.018;2022-12-26T03:37:49;10.20;92.60
16287;DHT22;8251;53.568;10.018;2022-12-26T03:43:39;10.20;93.00
16287;DHT22;8251;53.568;10.018;2022-12-26T03:46:36;10.30;93.00
16287;DHT22;8251;53.568;10.018;2022-12-26T03:49:28;10.20;93.10
16287;DHT22;8251;53.568;10.018;2022-12-26T03:52:18;10.20;93.20
16287;DHT22;8251;53.568;10.018;2022-12-26T03:55:09;10.20;93.10
16287;DHT22;8251;53.568;10.018;2022-12-26T03:57:59;10.30;93.20
16287;DHT22;8251;53.568;10.018;2022-12-26T04:01:20;10.30;93.10
16287;DHT22;8251;53.568;10.018;2022-12-26T04:04:10;10.30;93.10
16287;DHT22;8251;53.568;10.018;2022-12-26T04:07:01;10.30;93.10
16287;DHT22;8251;53.568;10.018;2022-12-26T04:09:53;10.30;93.00
16287;DHT22;8251;53.568;10.018;2022-12-26T04:12:46;10.20;92.90
16287;DHT22;8251;53.568;10.018;2022-12-26T04:15:40;10.30;93.00
16287;DHT22;8251;53.568;10.018;2022-12-26T04:18:41;10.20;92.90
16287;DHT22;8251;53.568;10.018;2022-12-26T04:21:38;10.20;92.90
16287;DHT22;8251;53.568;10.018;2022-12-26T04:24:25;10.20;92.90
16287;DHT22;8251;53.568;10.018;2022-12-26T04:27:15;10.20;93.00
16287;DHT22;8251;53.568;10.018;2022-12-26T04:30:04;10.20;93.00
16287;DHT22;8251;53.568;10.018;2022-12-26T04:32:54;10.20;93.00
16287;DHT22;8251;53.568;10.018;2022-12-26T04:35:45;10.20;93.10
16287;DHT22;8251;53.568;10.018;2022-12-26T04:38:36;10.30;93.10
16287;DHT22;8251;53.568;10.018;2022-12-26T04:41:26;10.20;93.20
16287;DHT22;8251;53.568;10.018;2022-12-26T04:44:14;10.20;93.20
16287;DHT22;8251;53.568;10.018;2022-12-26T04:46:47;10.10;93.60
16287;DHT22;8251;53.568;10.018;2022-12-26T04:49:16;10.20;93.30
16287;DHT22;8251;53.568;10.018;2022-12-26T04:52:04;10.20;93.30
16287;DHT22;8251;53.568;10.018;2022-12-26T04:54:32;10.30;93.40
16287;DHT22;8251;53.568;10.018;2022-12-26T04:57:00;10.30;93.40
16287;DHT22;8251;53.568;10.018;2022-12-26T04:59:30;10.30;93.40
16287;DHT22;8251;53.568;10.018;2022-12-26T05:02:02;10.30;93.40
16287;DHT22;8251;53.568;10.018;2022-12-26T05:04:47;10.30;93.30
16287;DHT22;8251;53.568;10.018;2022-12-26T05:07:38;10.30;93.30
16287;DHT22;8251;53.568;10.018;2022-12-26T05:10:25;10.40;93.30
16287;DHT22;8251;53.568;10.018;2022-12-26T05:12:53;10.40;93.30
16287;DHT22;8251;53.568;10.018;2022-12-26T05:15:23;10.40;93.30
16287;DHT22;8251;53.568;10.018;2022-12-26T05:17:53;10.40;93.20
16287;DHT22;8251;53.568;10.018;2022-12-26T05:20:38;10.40;93.10
16287;DHT22;8251;53.568;10.018;2022-12-26T05:23:27;10.40;93.20
16287;DHT22;8251;53.568;10.018;2022-12-26T05:26:16;10.40;93.20
16287;DHT22;8251;53.568;10.018;2022-12-26T05:29:05;10.40;93.10
16287;DHT22;8251;53.568;10.018;2022-12-26T05:31:33;10.30;93.10
16287;DHT22;8251;53.568;10.018;2022-12-26T05:34:06;10.30;93.20
16287;DHT22;8251;53.568;10.018;2022-12-26T05:36:36;10.30;93.20
16287;DHT22;8251;53.568;10.018;2022-12-26T05:39:07;10.30;93.40
16287;DHT22;8251;53.568;10.018;2022-12-26T05:41:36;10.30;93.40
16287;DHT22;8251;53.568;10.018;2022-12-26T05:44:07;10.30;93.40
16287;DHT22;8251;53.568;10.018;2022-12-26T05:46:36;10.30;93.40
16287;DHT22;8251;53.568;10.018;2022-12-26T05:49:11;10.30;93.40
16287;DHT22;8251;53.568;10.018;2022-12-26T05:51:41;10.30;93.40
16287;DHT22;8251;53.568;10.018;2022-12-26T05:54:09;10.40;93.40
16287;DHT22;8251;53.568;10.018;2022-12-26T05:56:38;10.40;93.40
16287;DHT22;8251;53.568;10.018;2022-12-26T05:59:07;10.40;93.40
16287;DHT22;8251;53.568;10.018;2022-12-26T06:01:35;10.30;93.40
16287;DHT22;8251;53.568;10.018;2022-12-26T06:04:02;10.30;93.40
16287;DHT22;8251;53.568;10.018;2022-12-26T06:06:33;10.40;93.40
16287;DHT22;8251;53.568;10.018;2022-12-26T06:09:03;10.40;93.40
16287;DHT22;8251;53.568;10.018;2022-12-26T06:11:33;10.30;93.50
16287;DHT22;8251;53.568;10.018;2022-12-26T06:14:03;10.30;93.50
16287;DHT22;8251;53.568;10.018;2022-12-26T06:16:33;10.40;93.50
16287;DHT22;8251;53.568;10.018;2022-12-26T06:19:02;10.40;93.50
16287;DHT22;8251;53.568;10.018;2022-12-26T06:21:35;10.40;93.50
16287;DHT22;8251;53.568;10.018;2022-12-26T06:24:04;10.40;93.50
16287;DHT22;8251;53.568;10.018;2022-12-26T06:26:33;10.40;93.10
16287;DHT22;8251;53.568;10.018;2022-12-26T06:29:01;10.40;93.40
16287;DHT22;8251;53.568;10.018;2022-12-26T06:31:28;10.50;93.40
16287;DHT22;8251;53.568;10.018;2022-12-26T06:33:57;10.40;93.40
16287;DHT22;8251;53.568;10.018;2022-12-26T06:36:29;10.40;93.40
16287;DHT22;8251;53.568;10.018;2022-12-26T06:38:58;10.40;93.50
16287;DHT22;8251;53.568;10.018;2022-12-26T06:41:29;10.50;93.40
16287;DHT22;8251;53.568;10.018;2022-12-26T06:43:58;10.40;93.60
16287;DHT22;8251;53.568;10.018;2022-12-26T06:46:27;10.40;93.60
16287;DHT22;8251;53.568;10.018;2022-12-26T06:48:59;10.30;93.50
16287;DHT22;8251;53.568;10.018;2022-12-26T06:51:27;10.40;93.50
16287;DHT22;8251;53.568;10.018;2022-12-26T06:54:01;10.40;93.60
16287;DHT22;8251;53.568;10.018;2022-12-26T06:56:29;10.40;93.60
16287;DHT22;8251;53.568;10.018;2022-12-26T06:58:59;10.40;93.60
16287;DHT22;8251;53.568;10.018;2022-12-26T07:01:28;10.40;93.60
16287;DHT22;8251;53.568;10.018;2022-12-26T07:04:12;10.50;93.60
16287;DHT22;8251;53.568;10.018;2022-12-26T07:06:40;10.40;93.60
16287;DHT22;8251;53.568;10.018;2022-12-26T07:09:11;10.50;93.70
16287;DHT22;8251;53.568;10.018;2022-12-26T07:11:45;10.50;93.60
16287;DHT22;8251;53.568;10.018;2022-12-26T07:14:15;10.50;93.70
16287;DHT22;8251;53.568;10.018;2022-12-26T07:16:46;10.50;93.70
16287;DHT22;8251;53.568;10.018;2022-12-26T07:19:14;10.50;93.70
16287;DHT22;8251;53.568;10.018;2022-12-26T07:21:45;10.40;93.70
16287;DHT22;8251;53.568;10.018;2022-12-26T07:24:21;10.50;93.70
16287;DHT22;8251;53.568;10.018;2022-12-26T07:26:49;10.50;93.70
16287;DHT22;8251;53.568;10.018;2022-12-26T07:29:16;10.50;93.80
16287;DHT22;8251;53.568;10.018;2022-12-26T07:31:44;10.50;93.80
16287;DHT22;8251;53.568;10.018;2022-12-26T07:34:15;10.60;93.80
16287;DHT22;8251;53.568;10.018;2022-12-26T07:36:44;10.60;93.80
16287;DHT22;8251;53.568;10.018;2022-12-26T07:39:13;10.60;93.70
16287;DHT22;8251;53.568;10.018;2022-12-26T07:41:42;10.60;93.70
16287;DHT22;8251;53.568;10.018;2022-12-26T07:44:28;10.70;93.80
16287;DHT22;8251;53.568;10.018;2022-12-26T07:46:59;10.70;93.80
16287;DHT22;8251;53.568;10.018;2022-12-26T07:49:28;10.60;93.80
16287;DHT22;8251;53.568;10.018;2022-12-26T07:51:59;10.70;93.80
16287;DHT22;8251;53.568;10.018;2022-12-26T07:54:28;10.60;93.70
16287;DHT22;8251;53.568;10.018;2022-12-26T07:56:58;10.70;93.80
16287;DHT22;8251;53.568;10.018;2022-12-26T07:59:29;10.70;93.80
16287;DHT22;8251;53.568;10.018;2022-12-26T08:01:57;10.80;93.80
16287;DHT22;8251;53.568;10.018;2022-12-26T08:04:28;10.80;93.60
16287;DHT22;8251;53.568;10.018;2022-12-26T08:06:58;10.80;93.50
16287;DHT22;8251;53.568;10.018;2022-12-26T08:09:29;10.80;93.60
16287;DHT22;8251;53.568;10.018;2022-12-26T08:11:59;10.80;93.60
16287;DHT22;8251;53.568;10.018;2022-12-26T08:14:28;10.80;93.60
16287;DHT22;8251;53.568;10.018;2022-12-26T08:16:55;10.80;93.60
16287;DHT22;8251;53.568;10.018;2022-12-26T08:19:22;10.80;93.60
16287;DHT22;8251;53.568;10.018;2022-12-26T08:21:49;10.80;93.60
16287;DHT22;8251;53.568;10.018;2022-12-26T08:24:18;10.80;93.60
16287;DHT22;8251;53.568;10.018;2022-12-26T08:26:46;10.90;93.50
16287;DHT22;8251;53.568;10.018;2022-12-26T08:29:14;10.90;93.40
16287;DHT22;8251;53.568;10.018;2022-12-26T08:31:42;11.00;93.40
16287;DHT22;8251;53.568;10.018;2022-12-26T08:34:11;10.90;93.40
16287;DHT22;8251;53.568;10.018;2022-12-26T08:36:40;10.90;93.40
16287;DHT22;8251;53.568;10.018;2022-12-26T08:39:08;10.90;93.20
16287;DHT22;8251;53.568;10.018;2022-12-26T08:41:36;10.90;93.20
16287;DHT22;8251;53.568;10.018;2022-12-26T08:44:08;10.90;93.20
16287;DHT22;8251;53.568;10.018;2022-12-26T08:46:39;10.90;93.20
16287;DHT22;8251;53.568;10.018;2022-12-26T08:49:07;10.90;93.30
16287;DHT22;8251;53.568;10.018;2022-12-26T08:51:38;10.90;93.30
16287;DHT22;8251;53.568;10.018;2022-12-26T08:54:08;10.90;93.40
16287;DHT22;8251;53.568;10.018;2022-12-26T08:56:35;10.90;93.30
16287;DHT22;8251;53.568;10.018;2022-12-26T08:59:03;10.90;93.30
16287;DHT22;8251;53.568;10.018;2022-12-26T09:01:31;10.90;93.40
16287;DHT22;8251;53.568;10.018;2022-12-26T09:04:02;10.90;93.30
16287;DHT22;8251;53.568;10.018;2022-12-26T09:06:32;10.90;93.40
16287;DHT22;8251;53.568;10.018;2022-12-26T09:09:01;10.90;93.40
16287;DHT22;8251;53.568;10.018;2022-12-26T09:11:29;11.00;93.40
16287;DHT22;8251;53.568;10.018;2022-12-26T09:13:58;11.00;93.30
16287;DHT22;8251;53.568;10.018;2022-12-26T09:16:29;11.00;93.30
16287;DHT22;8251;53.568;10.018;2022-12-26T09:18:58;11.00;93.20
16287;DHT22;8251;53.568;10.018;2022-12-26T09:21:30;11.10;93.20
16287;DHT22;8251;53.568;10.018;2022-12-26T09:23:58;11.10;93.10
16287;DHT22;8251;53.568;10.018;2022-12-26T09:26:27;11.10;93.10
16287;DHT22;8251;53.568;10.018;2022-12-26T09:28:59;11.10;93.00
16287;DHT22;8251;53.568;10.018;2022-12-26T09:31:28;11.10;92.90
16287;DHT22;8251;53.568;10.018;2022-12-26T09:33:56;11.10;92.80
16287;DHT22;8251;53.568;10.018;2022-12-26T09:36:38;11.10;92.90
16287;DHT22;8251;53.568;10.018;2022-12-26T09:39:12;11.10;93.00
16287;DHT22;8251;53.568;10.018;2022-12-26T09:42:05;11.10;93.00
16287;DHT22;8251;53.568;10.018;2022-12-26T09:44:46;11.10;93.00
16287;DHT22;8251;53.568;10.018;2022-12-26T09:47:23;11.10;92.90
16287;DHT22;8251;53.568;10.018;2022-12-26T09:50:00;11.10;92.90
16287;DHT22;8251;53.568;10.018;2022-12-26T09:52:37;11.10;92.90
16287;DHT22;8251;53.568;10.018;2022-12-26T09:55:24;11.10;93.10
16287;DHT22;8251;53.568;10.018;2022-12-26T09:57:56;11.10;93.00
16287;DHT22;8251;53.568;10.018;2022-12-26T10:00:27;11.10;92.90
16287;DHT22;8251;53.568;10.018;2022-12-26T10:02:57;11.20;92.90
16287;DHT22;8251;53.568;10.018;2022-12-26T10:05:30;11.20;92.80
16287;DHT22;8251;53.568;10.018;2022-12-26T10:08:14;11.10;92.80
16287;DHT22;8251;53.568;10.018;2022-12-26T10:10:46;11.50;92.80
16287;DHT22;8251;53.568;10.018;2022-12-26T10:13:26;11.30;92.80
16287;DHT22;8251;53.568;10.018;2022-12-26T10:15:59;11.20;92.70
16287;DHT22;8251;53.568;10.018;2022-12-26T10:18:33;11.20;92.60
16287;DHT22;8251;53.568;10.018;2022-12-26T10:21:17;11.20;92.60
16287;DHT22;8251;53.568;10.018;2022-12-26T10:23:50;11.20;92.50
16287;DHT22;8251;53.568;10.018;2022-12-26T10:26:22;11.20;92.60
16287;DHT22;8251;53.568;10.018;2022-12-26T10:28:54;11.20;92.40
16287;DHT22;8251;53.568;10.018;2022-12-26T10:31:27;11.20;92.40
16287;DHT22;8251;53.568;10.018;2022-12-26T10:36:50;11.20;92.50
16287;DHT22;8251;53.568;10.018;2022-12-26T10:39:27;11.20;92.40
16287;DHT22;8251;53.568;10.018;2022-12-26T10:41:59;11.30;92.30
16287;DHT22;8251;53.568;10.018;2022-12-26T10:44:28;11.20;92.30
16287;DHT22;8251;53.568;10.018;2022-12-26T10:47:19;11.20;92.40
16287;DHT22;8251;53.568;10.018;2022-12-26T10:49:47;11.30;92.30
16287;DHT22;8251;53.568;10.018;2022-12-26T10:52:17;11.30;92.30
16287;DHT22;8251;53.568;10.018;2022-12-26T10:54:54;11.30;92.30
16287;DHT22;8251;53.568;10.018;2022-12-26T10:57:28;11.30;92.40
16287;DHT22;8251;53.568;10.018;2022-12-26T10:59:58;11.40;92.40
16287;DHT22;8251;53.568;10.018;2022-12-26T11:02:29;11.40;92.40
16287;DHT22;8251;53.568;10.018;2022-12-26T11:05:09;11.40;92.50
16287;DHT22;8251;53.568;10.018;2022-12-26T11:07:47;11.50;92.50
16287;DHT22;8251;53.568;10.018;2022-12-26T11:10:31;11.50;92.40
16287;DHT22;8251;53.568;10.018;2022-12-26T11:13:06;11.50;92.20
16287;DHT22;8251;53.568;10.018;2022-12-26T11:15:37;11.60;92.20
16287;DHT22;8251;53.568;10.018;2022-12-26T11:18:18;11.50;92.10
16287;DHT22;8251;53.568;10.018;2022-12-26T11:20:46;11.50;91.80
16287;DHT22;8251;53.568;10.018;2022-12-26T11:23:25;11.50;91.90
16287;DHT22;8251;53.568;10.018;2022-12-26T11:26:16;11.50;91.80
16287;DHT22;8251;53.568;10.018;2022-12-26T11:28:45;11.50;91.70
16287;DHT22;8251;53.568;10.018;2022-12-26T11:31:22;11.30;91.60
16287;DHT22;8251;53.568;10.018;2022-12-26T11:33:52;11.50;91.60
16287;DHT22;8251;53.568;10.018;2022-12-26T11:36:21;11.50;91.70
16287;DHT22;8251;53.568;10.018;2022-12-26T11:38:54;11.40;91.60
16287;DHT22;8251;53.568;10.018;2022-12-26T11:41:38;11.40;91.60
16287;DHT22;8251;53.568;10.018;2022-12-26T11:44:18;11.40;91.60
16287;DHT22;8251;53.568;10.018;2022-12-26T11:46:52;11.40;91.60
16287;DHT22;8251;53.568;10.018;2022-12-26T11:49:34;11.40;91.60
16287;DHT22;8251;53.568;10.018;2022-12-26T11:52:35;11.50;91.60
16287;DHT22;8251;53.568;10.018;2022-12-26T11:55:26;11.50;91.50
16287;DHT22;8251;53.568;10.018;2022-12-26T11:58:13;11.50;91.50
16287;DHT22;8251;53.568;10.018;2022-12-26T12:01:04;11.50;91.40
16287;DHT22;8251;53.568;10.018;2022-12-26T12:03:38;11.50;91.50
16287;DHT22;8251;53.568;10.018;2022-12-26T12:06:18;11.50;91.40
16287;DHT22;8251;53.568;10.018;2022-12-26T12:08:58;11.50;91.40
16287;DHT22;8251;53.568;10.018;2022-12-26T12:11:35;11.60;91.40
16287;DHT22;8251;53.568;10.018;2022-12-26T12:14:20;11.50;91.40
16287;DHT22;8251;53.568;10.018;2022-12-26T12:16:59;11.50;91.40
16287;DHT22;8251;53.568;10.018;2022-12-26T12:19:41;11.50;91.40
16287;DHT22;8251;53.568;10.018;2022-12-26T12:22:32;11.50;91.60
16287;DHT22;8251;53.568;10.018;2022-12-26T12:25:27;11.40;91.80
16287;DHT22;8251;53.568;10.018;2022-12-26T12:28:06;11.40;91.90
16287;DHT22;8251;53.568;10.018;2022-12-26T12:30:42;11.40;92.10
16287;DHT22;8251;53.568;10.018;2022-12-26T12:33:27;11.40;92.10
16287;DHT22;8251;53.568;10.018;2022-12-26T12:36:23;11.30;92.20
16287;DHT22;8251;53.568;10.018;2022-12-26T12:39:01;11.30;92.30
16287;DHT22;8251;53.568;10.018;2022-12-26T12:41:54;11.30;92.40
16287;DHT22;8251;53.568;10.018;2022-12-26T12:44:33;11.30;92.30
16287;DHT22;8251;53.568;10.018;2022-12-26T12:47:10;11.30;92.40
16287;DHT22;8251;53.568;10.018;2022-12-26T12:49:49;11.30;92.40
16287;DHT22;8251;53.568;10.018;2022-12-26T12:52:31;11.30;92.40
16287;DHT22;8251;53.568;10.018;2022-12-26T12:58:13;11.30;92.20
16287;DHT22;8251;53.568;10.018;2022-12-26T13:00:49;11.30;92.30
16287;DHT22;8251;53.568;10.018;2022-12-26T13:03:26;11.30;92.30
16287;DHT22;8251;53.568;10.018;2022-12-26T13:06:01;11.30;92.20
16287;DHT22;8251;53.568;10.018;2022-12-26T13:08:35;11.30;92.30
16287;DHT22;8251;53.568;10.018;2022-12-26T13:11:09;11.30;92.20
16287;DHT22;8251;53.568;10.018;2022-12-26T13:13:43;11.40;92.20
16287;DHT22;8251;53.568;10.018;2022-12-26T13:16:15;11.40;92.10
16287;DHT22;8251;53.568;10.018;2022-12-26T13:18:52;11.30;91.90
16287;DHT22;8251;53.568;10.018;2022-12-26T13:21:23;11.30;91.90
16287;DHT22;8251;53.568;10.018;2022-12-26T13:23:55;11.40;92.00
16287;DHT22;8251;53.568;10.018;2022-12-26T13:26:45;11.40;91.80
16287;DHT22;8251;53.568;10.018;2022-12-26T13:29:17;11.40;91.70
16287;DHT22;8251;53.568;10.018;2022-12-26T13:31:48;11.50;91.40
16287;DHT22;8251;53.568;10.018;2022-12-26T13:34:19;11.50;90.60
16287;DHT22;8251;53.568;10.018;2022-12-26T13:36:48;11.50;90.40
16287;DHT22;8251;53.568;10.018;2022-12-26T13:39:30;11.50;90.10
16287;DHT22;8251;53.568;10.018;2022-12-26T13:42:01;11.50;89.70
16287;DHT22;8251;53.568;10.018;2022-12-26T13:44:48;11.50;87.50
16287;DHT22;8251;53.568;10.018;2022-12-26T13:47:35;11.40;86.80
16287;DHT22;8251;53.568;10.018;2022-12-26T13:53:27;11.30;84.90
16287;DHT22;8251;53.568;10.018;2022-12-26T13:55:58;11.20;85.40
16287;DHT22;8251;53.568;10.018;2022-12-26T13:58:47;11.10;85.60
16287;DHT22;8251;53.568;10.018;2022-12-26T14:01:41;11.10;85.70
16287;DHT22;8251;53.568;10.018;2022-12-26T14:04:39;11.00;86.30
16287;DHT22;8251;53.568;10.018;2022-12-26T14:07:20;11.00;86.50
16287;DHT22;8251;53.568;10.018;2022-12-26T14:10:02;11.00;86.10
16287;DHT22;8251;53.568;10.018;2022-12-26T14:15:34;10.90;87.30
16287;DHT22;8251;53.568;10.018;2022-12-26T14:18:17;10.90;88.10
16287;DHT22;8251;53.568;10.018;2022-12-26T14:20:51;10.80;88.50
16287;DHT22;8251;53.568;10.018;2022-12-26T14:23:39;10.70;88.30
16287;DHT22;8251;53.568;10.018;2022-12-26T14:26:25;10.70;88.60
16287;DHT22;8251;53.568;10.018;2022-12-26T14:29:03;10.60;88.50
16287;DHT22;8251;53.568;10.018;2022-12-26T14:31:38;10.50;87.70
16287;DHT22;8251;53.568;10.018;2022-12-26T14:34:17;10.40;88.00
16287;DHT22;8251;53.568;10.018;2022-12-26T14:36:55;10.40;88.20
16287;DHT22;8251;53.568;10.018;2022-12-26T14:39:30;10.20;88.40
16287;DHT22;8251;53.568;10.018;2022-12-26T14:42:25;10.10;88.30
16287;DHT22;8251;53.568;10.018;2022-12-26T14:45:40;10.20;88.70
16287;DHT22;8251;53.568;10.018;2022-12-26T14:51:38;10.10;89.00
16287;DHT22;8251;53.568;10.018;2022-12-26T14:54:16;10.10;89.20
16287;DHT22;8251;53.568;10.018;2022-12-26T14:56:47;10.10;89.20
16287;DHT22;8251;53.568;10.018;2022-12-26T14:59:29;10.00;89.10
16287;DHT22;8251;53.568;10.018;2022-12-26T15:02:07;10.00;89.70
16287;DHT22;8251;53.568;10.018;2022-12-26T15:04:59;9.90;90.10
16287;DHT22;8251;53.568;10.018;2022-12-26T15:08:13;9.90;90.30
16287;DHT22;8251;53.568;10.018;2022-12-26T15:11:04;9.80;90.50
16287;DHT22;8251;53.568;10.018;2022-12-26T15:14:23;9.80;90.40
16287;DHT22;8251;53.568;10.018;2022-12-26T15:17:09;9.70;90.30
16287;DHT22;8251;53.568;10.018;2022-12-26T15:20:08;9.70;90.20
16287;DHT22;8251;53.568;10.018;2022-12-26T15:23:22;9.70;90.00
16287;DHT22;8251;53.568;10.018;2022-12-26T15:29:04;9.60;89.40
16287;DHT22;8251;53.568;10.018;2022-12-26T15:31:51;9.50;89.40
16287;DHT22;8251;53.568;10.018;2022-12-26T15:34:46;9.50;89.60
16287;DHT22;8251;53.568;10.018;2022-12-26T15:37:40;9.50;89.70
16287;DHT22;8251;53.568;10.018;2022-12-26T15:40:14;9.50;89.40
16287;DHT22;8251;53.568;10.018;2022-12-26T15:42:54;9.50;89.00
16287;DHT22;8251;53.568;10.018;2022-12-26T15:45:32;9.50;88.40
16287;DHT22;8251;53.568;10.018;2022-12-26T15:48:22;9.50;88.60
16287;DHT22;8251;53.568;10.018;2022-12-26T15:50:58;9.50;88.70
16287;DHT22;8251;53.568;10.018;2022-12-26T15:53:37;9.50;88.80
16287;DHT22;8251;53.568;10.018;2022-12-26T15:56:24;9.50;88.60
16287;DHT22;8251;53.568;10.018;2022-12-26T15:59:24;9.50;88.40
16287;DHT22;8251;53.568;10.018;2022-12-26T16:01:58;9.50;88.20
16287;DHT22;8251;53.568;10.018;2022-12-26T16:04:30;9.40;87.80
16287;DHT22;8251;53.568;10.018;2022-12-26T16:07:08;9.40;87.80
16287;DHT22;8251;53.568;10.018;2022-12-26T16:09:45;9.30;87.50
16287;DHT22;8251;53.568;10.018;2022-12-26T16:12:20;9.30;87.50
16287;DHT22;8251;53.568;10.018;2022-12-26T16:14:48;9.30;87.60
16287;DHT22;8251;53.568;10.018;2022-12-26T16:17:19;9.30;87.30
16287;DHT22;8251;53.568;10.018;2022-12-26T16:19:48;9.30;87.30
16287;DHT22;8251;53.568;10.018;2022-12-26T16:22:24;9.30;86.60
16287;DHT22;8251;53.568;10.018;2022-12-26T16:25:15;9.40;86.60
16287;DHT22;8251;53.568;10.018;2022-12-26T16:27:44;9.30;85.20
16287;DHT22;8251;53.568;10.018;2022-12-26T16:30:15;9.20;85.20
16287;DHT22;8251;53.568;10.018;2022-12-26T16:32:44;9.20;84.70
16287;DHT22;8251;53.568;10.018;2022-12-26T16:35:19;9.20;84.80
16287;DHT22;8251;53.568;10.018;2022-12-26T16:37:49;9.10;84.10
16287;DHT22;8251;53.568;10.018;2022-12-26T16:40:22;9.10;84.30
16287;DHT22;8251;53.568;10.018;2022-12-26T16:42:58;9.00;84.40
16287;DHT22;8251;53.568;10.018;2022-12-26T16:45:30;9.00;84.30
16287;DHT22;8251;53.568;10.018;2022-12-26T16:47:58;9.00;84.40
16287;DHT22;8251;53.568;10.018;2022-12-26T16:50:27;9.00;84.60
16287;DHT22;8251;53.568;10.018;2022-12-26T16:53:10;9.00;84.80
16287;DHT22;8251;53.568;10.018;2022-12-26T16:55:44;9.00;84.60
16287;DHT22;8251;53.568;10.018;2022-12-26T16:58:33;8.90;84.40
16287;DHT22;8251;53.568;10.018;2022-12-26T17:01:05;8.90;84.50